Etusivu
METAR-TAF:

METAR-TAF

Lentoasemat :

Malé, Malediivit

Malén kansainvälinen lentoasema

Leveyspiiri: 04-12N, Pituuspiiri: 073-32E, korkeus merenpinnasta: 2 m

Tämänhetkinen sää

Tämä raportti tehtiin 1 tunti ja 9 minuuttia sitten, kello 17.00 UTC
Tuuli 12 kn idästä/koillisesta
Lämpötila 28°C
Kosteus 74%
Ilmanpaine 1011 hPa
Näkyvyys: 8000 m
Muutamia pilviä 1900 ft:n korkeudessa

METAR: VRMM 191700Z 06012KT 8000 FEW019 28/23 Q1011 NOSIG

Aika: 23:09 (18:09 UTC)

Sääennuste

Tämä raportti tehtiin 1 tunti ja 9 minuuttia sitten, kello 17.00 UTC
Ennuste voimassa 19. päivästä klo 18 UTC - 20. päivään klo 24 UTC
Tuuli 14 kn idästä/koillisesta
Näkyvyys: 9000 m
Muutamia pilviä 1900 ft:n korkeudessa

TAF: VRMM 191700Z 1918/2024 06014KT 9000 FEW019

Säähavainnot ja -ennusteet yli 4000 lentoasemalta (METAR- ja TAF-raportit).

Käytössä olevat sääasemat on merkitty karttaan keltaisilla ja punaisilla pisteillä.

Aseta hiiri pisteen päälle nähdäksesi sääaseman nimen.

Klikkaa sitten nähdäksesi säähavainnot ja -ennusteet.

Kartan vaihtaminen: klikkaa mustalla rastilla varustettuja vihreitä pisteitä, niin voit zoomata sisään; viivalla varustettua vihreää pistettä, niin voit zoomata ulos tai vihreitä nuolia, niin pääset viereisille kartoille.


METAR-TAF: